createdAt,value
2023-02-13T00:00:40.443Z,96059.75
2023-02-13T00:03:07.512Z,96057.84
2023-02-13T00:05:34.505Z,96056.66
2023-02-13T00:08:01.585Z,96063.00
2023-02-13T00:10:28.721Z,96050.63
2023-02-13T00:12:55.725Z,96066.28
2023-02-13T00:15:22.793Z,96059.66
2023-02-13T00:17:52.673Z,96057.28
2023-02-13T00:20:22.370Z,96050.97
2023-02-13T00:22:49.431Z,96059.53
2023-02-13T00:25:16.257Z,96058.72
2023-02-13T00:27:43.516Z,96055.25
2023-02-13T00:30:11.749Z,96060.66
2023-02-13T00:32:39.397Z,96056.72
2023-02-13T00:35:07.338Z,96058.25
2023-02-13T00:37:34.338Z,96053.97
2023-02-13T00:40:01.395Z,96060.06
2023-02-13T00:42:28.431Z,96050.19
2023-02-13T00:44:58.124Z,96055.78
2023-02-13T00:47:25.751Z,96062.47
2023-02-13T00:49:52.815Z,96057.81
2023-02-13T00:52:20.760Z,96060.97
2023-02-13T00:54:47.735Z,96063.25
2023-02-13T00:57:14.875Z,96066.75
2023-02-13T00:59:43.653Z,96063.66
2023-02-13T01:02:10.755Z,96073.47
2023-02-13T01:04:40.267Z,96067.16
2023-02-13T01:07:07.366Z,96065.47
2023-02-13T01:09:34.150Z,96066.00
2023-02-13T01:12:00.941Z,96075.38
2023-02-13T01:14:30.629Z,96074.19
2023-02-13T01:16:57.789Z,96073.09
2023-02-13T01:19:25.957Z,96077.03
2023-02-13T01:21:55.655Z,96075.09
2023-02-13T01:24:22.734Z,96073.53
2023-02-13T01:26:49.512Z,96070.66
2023-02-13T01:29:16.542Z,96079.78
2023-02-13T01:31:43.449Z,96079.88
2023-02-13T01:34:10.552Z,96079.75
2023-02-13T01:36:37.626Z,96083.56
2023-02-13T01:39:04.425Z,96082.41
2023-02-13T01:41:31.207Z,96072.50
2023-02-13T01:43:59.660Z,96068.13
2023-02-13T01:46:30.339Z,96063.03
2023-02-13T01:49:01.123Z,96063.00
2023-02-13T01:51:31.073Z,96066.13
2023-02-13T01:54:24.337Z,96056.97
2023-02-13T01:56:53.219Z,96070.00
2023-02-13T01:59:23.526Z,96067.63
2023-02-13T02:01:51.949Z,96068.69
2023-02-13T02:04:32.913Z,96073.53
2023-02-13T02:07:08.796Z,96069.53
2023-02-13T02:09:37.747Z,96064.28
2023-02-13T02:12:24.418Z,96066.69
2023-02-13T02:14:55.424Z,96066.50
2023-02-13T02:17:24.566Z,96067.31
2023-02-13T02:20:10.625Z,96065.25
2023-02-13T02:23:25.415Z,96061.75
2023-02-13T02:26:45.873Z,96066.47
2023-02-13T02:29:33.749Z,96065.09
2023-02-13T02:32:27.553Z,96061.16
2023-02-13T02:35:13.379Z,96064.13
2023-02-13T02:38:12.504Z,96065.25
2023-02-13T02:40:49.657Z,96070.34
2023-02-13T02:43:33.021Z,96068.44
2023-02-13T02:46:14.546Z,96061.81
2023-02-13T02:48:56.579Z,96067.75
2023-02-13T02:51:30.806Z,96074.22
2023-02-13T02:54:30.365Z,96077.69
2023-02-13T02:57:00.377Z,96072.81
2023-02-13T02:59:27.436Z,96076.81
2023-02-13T03:01:54.129Z,96079.84
2023-02-13T03:04:25.165Z,96075.84
2023-02-13T03:06:58.901Z,96078.78
2023-02-13T03:09:35.931Z,96079.25
2023-02-13T03:12:05.845Z,96075.38
2023-02-13T03:14:33.863Z,96084.72
2023-02-13T03:17:00.862Z,96075.97
2023-02-13T03:19:55.442Z,96078.75
2023-02-13T03:22:41.562Z,96078.41
2023-02-13T03:25:10.549Z,96085.75
2023-02-13T03:27:59.633Z,96081.53
2023-02-13T03:30:45.364Z,96079.19
2023-02-13T03:33:24.918Z,96082.63
2023-02-13T03:36:19.199Z,96081.31
2023-02-13T03:39:06.672Z,96088.00
2023-02-13T03:42:00.745Z,96080.75
2023-02-13T03:44:50.025Z,96085.63
2023-02-13T03:47:19.002Z,96088.63
2023-02-13T03:49:47.590Z,96091.38
2023-02-13T03:52:25.125Z,96096.56
2023-02-13T03:54:58.185Z,96097.34
2023-02-13T03:57:25.638Z,96096.94
2023-02-13T03:59:52.838Z,96100.84
2023-02-13T04:02:22.799Z,96096.72
2023-02-13T04:05:20.648Z,96091.97
2023-02-13T04:07:48.766Z,96092.56
2023-02-13T04:10:16.350Z,96096.94
2023-02-13T04:13:16.206Z,96095.03
2023-02-13T04:16:00.350Z,96094.75
2023-02-13T04:18:31.072Z,96103.53
2023-02-13T04:21:01.359Z,96096.16
2023-02-13T04:23:28.528Z,96100.41
2023-02-13T04:25:55.496Z,96104.78
2023-02-13T04:28:23.313Z,96100.09
2023-02-13T04:30:50.530Z,96099.34
2023-02-13T04:33:17.669Z,96094.03
2023-02-13T04:35:55.314Z,96093.69
2023-02-13T04:38:22.337Z,96096.78
2023-02-13T04:40:49.380Z,96097.78
2023-02-13T04:43:16.226Z,96096.31
2023-02-13T04:45:43.276Z,96097.41
2023-02-13T04:48:10.375Z,96101.72
2023-02-13T04:50:37.366Z,96109.56
2023-02-13T04:53:07.138Z,96104.47
2023-02-13T04:55:35.545Z,96109.94
2023-02-13T04:58:05.283Z,96118.50
2023-02-13T05:00:32.159Z,96112.94
2023-02-13T05:03:09.487Z,96118.44
2023-02-13T05:05:39.603Z,96110.84
2023-02-13T05:08:07.701Z,96112.44
2023-02-13T05:10:34.678Z,96114.88
2023-02-13T05:13:01.557Z,96114.81
2023-02-13T05:15:28.523Z,96113.31
2023-02-13T05:17:56.520Z,96118.69
2023-02-13T05:20:23.556Z,96116.31
2023-02-13T05:22:51.709Z,96112.38
2023-02-13T05:25:18.753Z,96111.84
2023-02-13T05:27:45.845Z,96109.03
2023-02-13T05:30:13.397Z,96113.34
2023-02-13T05:32:40.495Z,96117.09
2023-02-13T05:35:07.723Z,96116.56
2023-02-13T05:37:38.408Z,96116.84
2023-02-13T05:40:06.453Z,96112.09
2023-02-13T05:42:33.255Z,96117.38
2023-02-13T05:45:00.730Z,96108.28
2023-02-13T05:47:27.812Z,96109.09
2023-02-13T05:49:54.864Z,96105.97
2023-02-13T05:52:21.961Z,96114.28
2023-02-13T05:54:49.046Z,96121.00
2023-02-13T05:57:16.088Z,96110.78
2023-02-13T05:59:47.671Z,96113.97
2023-02-13T06:02:14.875Z,96111.31
2023-02-13T06:04:42.011Z,96113.56
2023-02-13T06:07:09.982Z,96105.09
2023-02-13T06:09:37.111Z,96121.00
2023-02-13T06:12:06.795Z,96118.75
2023-02-13T06:14:36.135Z,96121.56
2023-02-13T06:17:09.649Z,96122.66
2023-02-13T06:19:36.935Z,96124.44
2023-02-13T06:22:03.859Z,96122.97
2023-02-13T06:24:35.564Z,96130.19
2023-02-13T06:27:02.644Z,96136.63
2023-02-13T06:29:29.338Z,96134.66
2023-02-13T06:31:58.903Z,96140.09
2023-02-13T06:34:26.153Z,96130.53
2023-02-13T06:39:31.420Z,96145.66
2023-02-13T06:42:03.528Z,96144.44
2023-02-13T06:44:55.407Z,96147.38
2023-02-13T06:47:28.285Z,96137.16
2023-02-13T06:49:55.024Z,96148.81
2023-02-13T06:52:22.091Z,96148.94
2023-02-13T06:54:51.568Z,96150.88
2023-02-13T06:57:19.525Z,96150.94
2023-02-13T06:59:49.249Z,96151.75
2023-02-13T07:02:17.799Z,96147.44
2023-02-13T07:04:45.264Z,96152.22
2023-02-13T07:07:14.982Z,96153.31
2023-02-13T07:09:42.769Z,96154.59
2023-02-13T07:12:12.359Z,96162.09
2023-02-13T07:14:44.292Z,96161.03
2023-02-13T07:17:11.261Z,96160.16
2023-02-13T07:19:38.202Z,96160.22
2023-02-13T07:22:05.199Z,96152.94
2023-02-13T07:24:33.147Z,96160.94
2023-02-13T07:27:01.878Z,96157.09
2023-02-13T07:29:34.838Z,96164.44
2023-02-13T07:32:01.811Z,96163.44
2023-02-13T07:34:28.885Z,96163.44
2023-02-13T07:36:55.995Z,96166.56
2023-02-13T07:39:23.777Z,96167.91
2023-02-13T07:41:51.475Z,96168.34
2023-02-13T07:44:21.571Z,96168.50
2023-02-13T07:46:48.807Z,96176.88
2023-02-13T07:49:15.749Z,96177.13
2023-02-13T07:51:43.658Z,96171.75
2023-02-13T07:54:12.743Z,96171.63
2023-02-13T07:56:39.762Z,96172.31
2023-02-13T07:59:08.085Z,96179.78
2023-02-13T08:01:35.248Z,96179.66
2023-02-13T08:04:02.370Z,96177.16
2023-02-13T08:06:35.196Z,96177.25
2023-02-13T08:09:05.415Z,96180.72
2023-02-13T08:11:32.436Z,96176.84
2023-02-13T08:14:04.305Z,96172.88
2023-02-13T08:16:31.419Z,96164.56
2023-02-13T08:19:01.083Z,96164.16
2023-02-13T08:21:31.648Z,96166.19
2023-02-13T08:23:59.053Z,96163.78
2023-02-13T08:26:28.439Z,96168.47
2023-02-13T08:28:55.366Z,96161.13
2023-02-13T08:31:25.280Z,96175.44
2023-02-13T08:33:52.421Z,96170.47
2023-02-13T08:36:19.457Z,96171.06
2023-02-13T08:38:49.197Z,96167.94
2023-02-13T08:43:54.120Z,96170.75
2023-02-13T08:46:25.808Z,96171.34
2023-02-13T08:48:52.921Z,96165.81
2023-02-13T08:51:19.875Z,96172.94
2023-02-13T08:53:46.877Z,96170.75
2023-02-13T08:56:16.398Z,96168.22
2023-02-13T08:58:43.445Z,96166.16
2023-02-13T09:01:35.638Z,96166.81
2023-02-13T09:04:07.768Z,96167.81
2023-02-13T09:06:35.190Z,96174.91
2023-02-13T09:09:02.298Z,96165.44
2023-02-13T09:11:29.352Z,96171.78
2023-02-13T09:13:56.118Z,96169.88
2023-02-13T09:16:25.620Z,96175.16
2023-02-13T09:18:52.789Z,96171.59
2023-02-13T09:21:20.654Z,96174.56
2023-02-13T09:23:48.022Z,96174.88
2023-02-13T09:26:15.422Z,96170.28
2023-02-13T09:28:42.594Z,96175.63
2023-02-13T09:31:21.587Z,96177.88
2023-02-13T09:33:49.335Z,96172.34
2023-02-13T09:36:20.495Z,96177.41
2023-02-13T09:38:48.032Z,96176.72
2023-02-13T09:41:37.752Z,96177.25
2023-02-13T09:44:16.551Z,96174.47
2023-02-13T09:46:43.402Z,96176.31
2023-02-13T09:49:13.888Z,96168.63
2023-02-13T09:51:41.839Z,96169.50
2023-02-13T09:54:17.609Z,96174.19
2023-02-13T09:57:09.273Z,96168.97
2023-02-13T10:00:05.431Z,96169.41
2023-02-13T10:02:38.040Z,96173.09
2023-02-13T10:05:19.731Z,96173.88
2023-02-13T10:08:24.743Z,96173.25
2023-02-13T10:11:06.658Z,96173.75
2023-02-13T10:14:01.958Z,96174.16
2023-02-13T10:16:51.048Z,96165.66
2023-02-13T10:19:26.926Z,96170.72
2023-02-13T10:22:10.116Z,96171.34
2023-02-13T10:24:41.092Z,96172.44
2023-02-13T10:27:27.242Z,96165.25
2023-02-13T10:30:08.779Z,96164.94
2023-02-13T10:32:42.451Z,96170.28
2023-02-13T10:35:31.947Z,96170.28
2023-02-13T10:37:59.562Z,96170.31
2023-02-13T10:40:38.469Z,96167.88
2023-02-13T10:43:08.372Z,96159.50
2023-02-13T10:46:03.582Z,96160.31
2023-02-13T10:48:38.801Z,96152.84
2023-02-13T10:51:14.170Z,96148.88
2023-02-13T10:54:29.130Z,96152.44
2023-02-13T10:57:14.799Z,96147.75
2023-02-13T11:00:09.691Z,96150.25
2023-02-13T11:02:36.651Z,96148.00
2023-02-13T11:05:16.702Z,96137.81
2023-02-13T11:07:44.931Z,96133.28
2023-02-13T11:10:25.038Z,96144.25
2023-02-13T11:12:54.738Z,96140.19
2023-02-13T11:15:27.058Z,96141.28
2023-02-13T11:17:59.201Z,96140.56
2023-02-13T11:20:29.649Z,96135.28
2023-02-13T11:23:02.314Z,96136.91
2023-02-13T11:25:30.275Z,96139.94
2023-02-13T11:28:17.312Z,96136.19
2023-02-13T11:30:44.070Z,96127.19
2023-02-13T11:33:17.366Z,96125.63
2023-02-13T11:35:45.456Z,96126.13
2023-02-13T11:38:18.183Z,96128.38
2023-02-13T11:40:46.607Z,96125.69
2023-02-13T11:43:27.365Z,96119.91
2023-02-13T11:46:07.468Z,96119.97
2023-02-13T11:48:34.620Z,96124.75
2023-02-13T11:51:02.145Z,96123.72
2023-02-13T11:53:37.897Z,96122.50
2023-02-13T11:56:15.065Z,96116.44
2023-02-13T11:58:41.966Z,96109.97
2023-02-13T12:04:16.165Z,96106.00
2023-02-13T12:06:58.857Z,96103.88
2023-02-13T12:09:27.223Z,96106.34
2023-02-13T12:12:00.477Z,96097.03
2023-02-13T12:14:30.144Z,96091.25
2023-02-13T12:17:36.078Z,96102.84
2023-02-13T12:20:03.744Z,96083.41
2023-02-13T12:22:44.864Z,96078.56
2023-02-13T12:25:41.443Z,96083.81
2023-02-13T12:28:20.501Z,96079.06
2023-02-13T12:31:25.330Z,96077.75
2023-02-13T12:34:22.635Z,96071.75
2023-02-13T12:37:28.871Z,96072.06
2023-02-13T12:40:23.747Z,96071.06
2023-02-13T12:43:14.642Z,96071.22
2023-02-13T12:46:29.860Z,96066.00
2023-02-13T12:49:05.319Z,96062.88
2023-02-13T12:51:50.766Z,96061.31
2023-02-13T12:54:43.821Z,96059.75
2023-02-13T12:57:39.016Z,96055.94
2023-02-13T13:00:24.809Z,96044.34
2023-02-13T13:02:54.547Z,96052.94
2023-02-13T13:06:11.458Z,96053.19
2023-02-13T13:09:06.075Z,96047.72
2023-02-13T13:12:09.341Z,96050.84
2023-02-13T13:14:39.503Z,96040.47
2023-02-13T13:17:45.063Z,96034.63
2023-02-13T13:20:14.689Z,96035.31
2023-02-13T13:22:46.323Z,96042.66
2023-02-13T13:25:20.242Z,96045.56
2023-02-13T13:27:49.637Z,96031.56
2023-02-13T13:30:36.030Z,96020.06
2023-02-13T13:33:22.285Z,96022.63
2023-02-13T13:36:05.957Z,96024.75
2023-02-13T13:39:21.538Z,96022.75
2023-02-13T13:42:12.042Z,96021.97
2023-02-13T13:44:44.732Z,96022.91
2023-02-13T13:47:39.913Z,96012.72
2023-02-13T13:50:27.669Z,96009.06
2023-02-13T13:53:16.161Z,96013.47
2023-02-13T13:55:51.961Z,96012.34
2023-02-13T13:58:40.782Z,96003.88
2023-02-13T14:01:19.642Z,96005.78
2023-02-13T14:03:47.531Z,95998.31
2023-02-13T14:06:15.998Z,95999.25
2023-02-13T14:09:04.051Z,95997.69
2023-02-13T14:11:33.166Z,96000.88
2023-02-13T14:14:00.467Z,95999.19
2023-02-13T14:16:43.336Z,95995.03
2023-02-13T14:19:31.478Z,95993.09
2023-02-13T14:22:35.539Z,96000.16
2023-02-13T14:25:06.180Z,95999.47
2023-02-13T14:27:46.490Z,95995.94
2023-02-13T14:30:45.789Z,95998.53
2023-02-13T14:33:42.543Z,95997.41
2023-02-13T14:36:21.880Z,95997.50
2023-02-13T14:39:16.459Z,95986.50
2023-02-13T14:42:03.506Z,95993.66
2023-02-13T14:44:58.638Z,95980.13
2023-02-13T14:47:39.690Z,95976.56
2023-02-13T14:50:07.845Z,95980.25
2023-02-13T14:52:36.263Z,95980.06
2023-02-13T14:55:08.663Z,95982.72
2023-02-13T14:57:47.515Z,95971.31
2023-02-13T15:00:40.053Z,95967.28
2023-02-13T15:03:20.892Z,95973.38
2023-02-13T15:05:51.144Z,95969.78
2023-02-13T15:08:23.345Z,95965.06
2023-02-13T15:10:52.729Z,95957.22
2023-02-13T15:13:29.259Z,95966.53
2023-02-13T15:16:01.631Z,95962.63
2023-02-13T15:18:30.515Z,95969.47
2023-02-13T15:20:59.251Z,95965.84
2023-02-13T15:23:28.705Z,95966.91
2023-02-13T15:25:59.910Z,95961.84
2023-02-13T15:28:27.725Z,95961.19
2023-02-13T15:30:56.817Z,95965.66
2023-02-13T15:33:26.557Z,95964.41
2023-02-13T15:36:04.741Z,95966.56
2023-02-13T15:38:33.757Z,95961.16
2023-02-13T15:41:05.942Z,95960.81
2023-02-13T15:43:40.602Z,95951.63
2023-02-13T15:46:18.389Z,95954.31
2023-02-13T15:48:45.593Z,95953.19
2023-02-13T15:51:21.927Z,95955.22
2023-02-13T15:54:05.113Z,95954.63
2023-02-13T15:56:32.914Z,95955.44
2023-02-13T15:59:00.122Z,95954.19
2023-02-13T16:01:32.072Z,95949.72
2023-02-13T16:04:02.461Z,95954.50
2023-02-13T16:06:29.394Z,95947.13
2023-02-13T16:08:57.512Z,95955.66
2023-02-13T16:11:29.169Z,95955.78
2023-02-13T16:14:06.308Z,95958.63
2023-02-13T16:16:54.378Z,95952.28
2023-02-13T16:19:42.038Z,95953.44
2023-02-13T16:22:27.752Z,95959.69
2023-02-13T16:24:55.942Z,95954.53
2023-02-13T16:27:26.487Z,95957.63
2023-02-13T16:30:08.304Z,95957.69
2023-02-13T16:32:37.881Z,95950.72
2023-02-13T16:35:26.650Z,95952.19
2023-02-13T16:38:00.726Z,95951.91
2023-02-13T16:40:35.387Z,95962.63
2023-02-13T16:43:37.429Z,95952.50
2023-02-13T16:46:34.879Z,95954.53
2023-02-13T16:49:13.540Z,95959.56
2023-02-13T16:52:01.399Z,95957.88
2023-02-13T16:54:57.742Z,95964.13
2023-02-13T16:57:33.817Z,95955.94
2023-02-13T17:00:12.602Z,95967.47
2023-02-13T17:02:45.924Z,95972.00
2023-02-13T17:05:23.246Z,95962.84
2023-02-13T17:07:58.868Z,95967.13
2023-02-13T17:10:35.569Z,95977.09
2023-02-13T17:13:20.927Z,95980.75
2023-02-13T17:15:48.225Z,95976.78
2023-02-13T17:18:15.208Z,95987.09
2023-02-13T17:20:42.990Z,95997.75
2023-02-13T17:23:16.182Z,95996.28
2023-02-13T17:25:43.511Z,95996.53
2023-02-13T17:28:15.234Z,95995.75
2023-02-13T17:30:43.500Z,95999.31
2023-02-13T17:33:29.980Z,95998.75
2023-02-13T17:35:56.692Z,96004.66
2023-02-13T17:38:28.145Z,96001.78
2023-02-13T17:40:55.099Z,96009.41
2023-02-13T17:43:27.145Z,96015.03
2023-02-13T17:45:54.219Z,96008.66
2023-02-13T17:48:21.460Z,96014.13
2023-02-13T17:50:49.238Z,96015.69
2023-02-13T17:53:27.800Z,96015.03
2023-02-13T17:55:54.853Z,96021.50
2023-02-13T17:58:22.179Z,96015.31
2023-02-13T18:00:50.402Z,96021.69
2023-02-13T18:03:19.855Z,96028.47
2023-02-13T18:05:50.016Z,96025.69
2023-02-13T18:08:22.146Z,96028.88
2023-02-13T18:10:48.996Z,96030.88
2023-02-13T18:13:18.474Z,96021.75
2023-02-13T18:15:45.769Z,96024.97
2023-02-13T18:18:13.778Z,96030.53
2023-02-13T18:20:42.155Z,96032.91
2023-02-13T18:23:09.513Z,96033.31
2023-02-13T18:25:36.473Z,96031.34
2023-02-13T18:28:03.365Z,96028.16
2023-02-13T18:30:30.643Z,96034.13
2023-02-13T18:32:57.402Z,96022.66
2023-02-13T18:35:24.131Z,96027.41
2023-02-13T18:37:51.243Z,96029.00
2023-02-13T18:40:18.428Z,96028.59
2023-02-13T18:42:50.301Z,96025.03
2023-02-13T18:45:19.013Z,96029.81
2023-02-13T18:47:45.797Z,96032.59
2023-02-13T18:50:12.563Z,96030.59
2023-02-13T18:52:39.631Z,96025.84
2023-02-13T18:55:07.490Z,96035.34
2023-02-13T18:57:34.256Z,96029.03
2023-02-13T19:00:00.973Z,96029.78
2023-02-13T19:02:28.163Z,96033.72
2023-02-13T19:04:55.206Z,96027.22
2023-02-13T19:07:22.245Z,96033.72
2023-02-13T19:09:49.249Z,96029.84
2023-02-13T19:12:16.168Z,96028.25
2023-02-13T19:14:43.288Z,96030.22
2023-02-13T19:17:10.312Z,96038.56
2023-02-13T19:19:37.706Z,96038.16
2023-02-13T19:22:04.802Z,96034.56
2023-02-13T19:24:31.823Z,96034.59
2023-02-13T19:26:59.030Z,96040.13
2023-02-13T19:29:28.812Z,96038.53
2023-02-13T19:31:55.852Z,96034.19
2023-02-13T19:34:22.869Z,96044.09
2023-02-13T19:36:49.876Z,96039.72
2023-02-13T19:39:16.651Z,96039.72
2023-02-13T19:41:43.711Z,96047.63
2023-02-13T19:44:15.574Z,96039.28
2023-02-13T19:46:42.684Z,96047.22
2023-02-13T19:49:09.996Z,96046.03
2023-02-13T19:51:36.723Z,96048.78
2023-02-13T19:54:05.694Z,96043.22
2023-02-13T19:56:33.605Z,96043.22
2023-02-13T19:59:00.652Z,96055.53
2023-02-13T20:01:29.487Z,96051.53
2023-02-13T20:03:56.623Z,96061.44
2023-02-13T20:06:43.134Z,96058.69
2023-02-13T20:09:15.368Z,96061.44
2023-02-13T20:11:42.634Z,96062.63
2023-02-13T20:14:11.731Z,96068.47
2023-02-13T20:16:38.789Z,96065.28
2023-02-13T20:19:05.952Z,96063.22
2023-02-13T20:21:35.236Z,96068.38
2023-02-13T20:24:05.449Z,96071.16
2023-02-13T20:26:32.158Z,96067.59
2023-02-13T20:28:58.874Z,96069.19
2023-02-13T20:31:25.983Z,96066.75
2023-02-13T20:33:53.114Z,96065.22
2023-02-13T20:36:23.981Z,96062.03
2023-02-13T20:38:53.190Z,96073.16
2023-02-13T20:41:24.979Z,96070.44
2023-02-13T20:43:52.057Z,96071.56
2023-02-13T20:46:18.807Z,96072.38
2023-02-13T20:48:46.559Z,96074.25
2023-02-13T20:51:16.917Z,96085.69
2023-02-13T20:53:44.408Z,96082.47
2023-02-13T20:56:20.627Z,96080.50
2023-02-13T20:58:52.845Z,96087.31
2023-02-13T21:01:26.676Z,96090.31
2023-02-13T21:03:54.269Z,96091.19
2023-02-13T21:06:33.271Z,96095.16
2023-02-13T21:09:01.064Z,96089.16
2023-02-13T21:11:33.065Z,96091.84
2023-02-13T21:14:00.421Z,96094.69
2023-02-13T21:16:29.190Z,96089.94
2023-02-13T21:18:57.914Z,96087.56
2023-02-13T21:21:26.320Z,96103.88
2023-02-13T21:23:53.901Z,96097.47
2023-02-13T21:26:20.800Z,96099.06
2023-02-13T21:28:48.163Z,96088.34
2023-02-13T21:31:24.265Z,96096.53
2023-02-13T21:34:10.105Z,96093.03
2023-02-13T21:36:37.049Z,96096.19
2023-02-13T21:39:06.370Z,96095.00
2023-02-13T21:41:33.270Z,96093.41
2023-02-13T21:44:00.948Z,96092.94
2023-02-13T21:46:31.973Z,96106.78
2023-02-13T21:49:05.697Z,96103.22
2023-02-13T21:51:33.476Z,96102.00
2023-02-13T21:54:00.256Z,96110.31
2023-02-13T21:56:28.830Z,96109.09
2023-02-13T21:58:55.631Z,96107.81
2023-02-13T22:01:30.261Z,96111.06
2023-02-13T22:04:00.497Z,96106.06
2023-02-13T22:06:28.864Z,96104.81
2023-02-13T22:08:59.927Z,96103.53
2023-02-13T22:11:26.989Z,96110.75
2023-02-13T22:13:57.611Z,96106.00
2023-02-13T22:16:24.398Z,96115.59
2023-02-13T22:18:51.148Z,96107.69
2023-02-13T22:21:19.353Z,96113.16
2023-02-13T22:23:46.125Z,96111.13
2023-02-13T22:26:23.198Z,96113.53
2023-02-13T22:28:52.987Z,96113.03
2023-02-13T22:31:20.021Z,96112.22
2023-02-13T22:33:52.371Z,96107.47
2023-02-13T22:36:25.290Z,96109.41
2023-02-13T22:38:54.955Z,96103.91
2023-02-13T22:41:23.559Z,96101.50
2023-02-13T22:43:52.985Z,96103.22
2023-02-13T22:46:31.137Z,96109.44
2023-02-13T22:48:58.212Z,96108.19
2023-02-13T22:51:29.507Z,96114.81
2023-02-13T22:53:57.702Z,96111.19
2023-02-13T22:56:25.798Z,96109.91
2023-02-13T22:58:52.525Z,96107.16
2023-02-13T23:01:20.277Z,96113.44
2023-02-13T23:03:48.129Z,96108.91
2023-02-13T23:06:14.845Z,96106.22
2023-02-13T23:08:43.200Z,96112.69
2023-02-13T23:11:12.158Z,96112.03
2023-02-13T23:13:38.907Z,96114.81
2023-02-13T23:16:12.266Z,96119.84
2023-02-13T23:18:39.064Z,96117.47
2023-02-13T23:21:06.136Z,96111.13
2023-02-13T23:23:35.732Z,96113.44
2023-02-13T23:26:06.269Z,96114.56
2023-02-13T23:28:33.085Z,96113.09
2023-02-13T23:31:03.214Z,96123.72
2023-02-13T23:33:30.075Z,96113.09
2023-02-13T23:35:59.666Z,96114.59
2023-02-13T23:38:26.752Z,96119.41
2023-02-13T23:40:53.872Z,96121.41
2023-02-13T23:43:20.553Z,96121.38
2023-02-13T23:45:47.247Z,96116.63
2023-02-13T23:48:13.966Z,96114.28
2023-02-13T23:50:40.690Z,96119.44
2023-02-13T23:53:07.503Z,96119.03
2023-02-13T23:55:34.593Z,96118.28
2023-02-13T23:58:01.291Z,96116.19
